sensor_id;sensor_type;location;lat;lon;timestamp;P1;durP1;ratioP1;P2;durP2;ratioP2
17967;SDS011;9109;48.050;11.696;2024-01-30T00:02:44;11.30;;;4.80;;
17967;SDS011;9109;48.050;11.696;2024-01-30T00:05:49;15.67;;;5.00;;
17967;SDS011;9109;48.050;11.696;2024-01-30T00:08:54;11.07;;;5.30;;
17967;SDS011;9109;48.050;11.696;2024-01-30T00:11:56;15.73;;;5.47;;
17967;SDS011;9109;48.050;11.696;2024-01-30T00:14:58;16.10;;;5.37;;
17967;SDS011;9109;48.050;11.696;2024-01-30T00:18:04;13.03;;;4.77;;
17967;SDS011;9109;48.050;11.696;2024-01-30T00:21:07;13.47;;;4.87;;
17967;SDS011;9109;48.050;11.696;2024-01-30T00:24:09;12.53;;;5.00;;
17967;SDS011;9109;48.050;11.696;2024-01-30T00:27:11;11.50;;;4.90;;
17967;SDS011;9109;48.050;11.696;2024-01-30T00:30:16;10.60;;;4.17;;
17967;SDS011;9109;48.050;11.696;2024-01-30T00:33:21;8.13;;;3.90;;
17967;SDS011;9109;48.050;11.696;2024-01-30T00:36:23;10.57;;;4.23;;
17967;SDS011;9109;48.050;11.696;2024-01-30T00:39:25;10.53;;;3.53;;
17967;SDS011;9109;48.050;11.696;2024-01-30T00:42:28;6.60;;;3.63;;
17967;SDS011;9109;48.050;11.696;2024-01-30T00:45:30;5.77;;;2.80;;
17967;SDS011;9109;48.050;11.696;2024-01-30T00:48:35;6.53;;;3.03;;
17967;SDS011;9109;48.050;11.696;2024-01-30T00:51:37;7.30;;;3.23;;
17967;SDS011;9109;48.050;11.696;2024-01-30T00:54:39;7.67;;;3.60;;
17967;SDS011;9109;48.050;11.696;2024-01-30T00:57:41;8.23;;;3.57;;
17967;SDS011;9109;48.050;11.696;2024-01-30T01:00:44;5.53;;;3.27;;
17967;SDS011;9109;48.050;11.696;2024-01-30T01:03:47;6.30;;;3.13;;
17967;SDS011;9109;48.050;11.696;2024-01-30T01:06:49;8.10;;;3.40;;
17967;SDS011;9109;48.050;11.696;2024-01-30T01:09:52;10.73;;;3.07;;
17967;SDS011;9109;48.050;11.696;2024-01-30T01:12:54;5.73;;;2.90;;
17967;SDS011;9109;48.050;11.696;2024-01-30T01:15:56;10.37;;;3.27;;
17967;SDS011;9109;48.050;11.696;2024-01-30T01:19:01;7.37;;;2.93;;
17967;SDS011;9109;48.050;11.696;2024-01-30T01:22:03;6.53;;;2.87;;
17967;SDS011;9109;48.050;11.696;2024-01-30T01:25:06;8.43;;;3.63;;
17967;SDS011;9109;48.050;11.696;2024-01-30T01:28:08;8.80;;;3.10;;
17967;SDS011;9109;48.050;11.696;2024-01-30T01:31:11;10.03;;;3.47;;
17967;SDS011;9109;48.050;11.696;2024-01-30T01:34:15;5.97;;;3.10;;
17967;SDS011;9109;48.050;11.696;2024-01-30T01:37:20;6.87;;;3.10;;
17967;SDS011;9109;48.050;11.696;2024-01-30T01:40:22;6.53;;;3.17;;
17967;SDS011;9109;48.050;11.696;2024-01-30T01:43:25;6.07;;;2.57;;
17967;SDS011;9109;48.050;11.696;2024-01-30T01:46:27;6.83;;;3.20;;
17967;SDS011;9109;48.050;11.696;2024-01-30T01:49:32;6.87;;;3.03;;
17967;SDS011;9109;48.050;11.696;2024-01-30T01:52:35;7.30;;;3.60;;
17967;SDS011;9109;48.050;11.696;2024-01-30T01:55:38;8.33;;;3.97;;
17967;SDS011;9109;48.050;11.696;2024-01-30T01:58:40;7.57;;;3.63;;
17967;SDS011;9109;48.050;11.696;2024-01-30T02:01:46;7.83;;;3.73;;
17967;SDS011;9109;48.050;11.696;2024-01-30T02:04:50;9.10;;;3.97;;
17967;SDS011;9109;48.050;11.696;2024-01-30T02:07:52;6.63;;;3.57;;
17967;SDS011;9109;48.050;11.696;2024-01-30T02:10:55;7.27;;;3.50;;
17967;SDS011;9109;48.050;11.696;2024-01-30T02:13:57;9.93;;;3.73;;
17967;SDS011;9109;48.050;11.696;2024-01-30T02:17:04;8.20;;;3.70;;
17967;SDS011;9109;48.050;11.696;2024-01-30T02:20:08;8.63;;;3.30;;
17967;SDS011;9109;48.050;11.696;2024-01-30T02:23:12;10.23;;;3.80;;
17967;SDS011;9109;48.050;11.696;2024-01-30T02:26:18;8.33;;;3.53;;
17967;SDS011;9109;48.050;11.696;2024-01-30T02:29:23;8.53;;;3.33;;
17967;SDS011;9109;48.050;11.696;2024-01-30T02:32:27;10.67;;;4.30;;
17967;SDS011;9109;48.050;11.696;2024-01-30T02:35:32;7.97;;;3.57;;
17967;SDS011;9109;48.050;11.696;2024-01-30T02:38:38;9.67;;;3.27;;
17967;SDS011;9109;48.050;11.696;2024-01-30T02:41:40;5.57;;;3.27;;
17967;SDS011;9109;48.050;11.696;2024-01-30T02:44:42;8.70;;;3.20;;
17967;SDS011;9109;48.050;11.696;2024-01-30T02:47:45;5.53;;;2.93;;
17967;SDS011;9109;48.050;11.696;2024-01-30T02:50:47;8.13;;;2.97;;
17967;SDS011;9109;48.050;11.696;2024-01-30T02:53:50;6.40;;;3.10;;
17967;SDS011;9109;48.050;11.696;2024-01-30T02:56:53;10.27;;;3.00;;
17967;SDS011;9109;48.050;11.696;2024-01-30T02:59:55;5.07;;;2.60;;
17967;SDS011;9109;48.050;11.696;2024-01-30T03:02:57;5.97;;;2.93;;
17967;SDS011;9109;48.050;11.696;2024-01-30T03:05:59;5.17;;;2.57;;
17967;SDS011;9109;48.050;11.696;2024-01-30T03:09:03;7.87;;;3.03;;
17967;SDS011;9109;48.050;11.696;2024-01-30T03:12:05;5.60;;;2.80;;
17967;SDS011;9109;48.050;11.696;2024-01-30T03:15:08;4.97;;;2.40;;
17967;SDS011;9109;48.050;11.696;2024-01-30T03:18:10;7.20;;;3.07;;
17967;SDS011;9109;48.050;11.696;2024-01-30T03:21:12;6.10;;;2.70;;
17967;SDS011;9109;48.050;11.696;2024-01-30T03:24:16;6.43;;;2.57;;
17967;SDS011;9109;48.050;11.696;2024-01-30T03:27:18;3.87;;;2.60;;
17967;SDS011;9109;48.050;11.696;2024-01-30T03:30:21;10.97;;;2.83;;
17967;SDS011;9109;48.050;11.696;2024-01-30T03:33:23;5.57;;;2.73;;
17967;SDS011;9109;48.050;11.696;2024-01-30T03:36:25;4.37;;;2.23;;
17967;SDS011;9109;48.050;11.696;2024-01-30T03:39:28;3.23;;;2.20;;
17967;SDS011;9109;48.050;11.696;2024-01-30T03:42:30;5.03;;;2.70;;
17967;SDS011;9109;48.050;11.696;2024-01-30T03:45:33;7.83;;;2.90;;
17967;SDS011;9109;48.050;11.696;2024-01-30T03:48:35;4.57;;;2.30;;
17967;SDS011;9109;48.050;11.696;2024-01-30T03:51:37;3.67;;;2.07;;
17967;SDS011;9109;48.050;11.696;2024-01-30T03:54:41;6.60;;;2.60;;
17967;SDS011;9109;48.050;11.696;2024-01-30T03:57:43;7.00;;;2.37;;
17967;SDS011;9109;48.050;11.696;2024-01-30T04:00:45;3.20;;;2.10;;
17967;SDS011;9109;48.050;11.696;2024-01-30T04:03:47;4.73;;;2.07;;
17967;SDS011;9109;48.050;11.696;2024-01-30T04:06:49;4.33;;;2.20;;
17967;SDS011;9109;48.050;11.696;2024-01-30T04:09:53;5.00;;;2.20;;
17967;SDS011;9109;48.050;11.696;2024-01-30T04:12:55;6.13;;;2.43;;
17967;SDS011;9109;48.050;11.696;2024-01-30T04:15:58;4.40;;;2.07;;
17967;SDS011;9109;48.050;11.696;2024-01-30T04:19:01;4.10;;;2.07;;
17967;SDS011;9109;48.050;11.696;2024-01-30T04:22:03;4.80;;;2.33;;
17967;SDS011;9109;48.050;11.696;2024-01-30T04:25:07;12.50;;;2.83;;
17967;SDS011;9109;48.050;11.696;2024-01-30T04:28:09;3.03;;;1.90;;
17967;SDS011;9109;48.050;11.696;2024-01-30T04:31:12;5.30;;;2.30;;
17967;SDS011;9109;48.050;11.696;2024-01-30T04:34:14;4.93;;;2.03;;
17967;SDS011;9109;48.050;11.696;2024-01-30T04:37:16;4.93;;;2.47;;
17967;SDS011;9109;48.050;11.696;2024-01-30T04:40:19;5.77;;;2.93;;
17967;SDS011;9109;48.050;11.696;2024-01-30T04:43:22;6.90;;;2.50;;
17967;SDS011;9109;48.050;11.696;2024-01-30T04:46:24;5.83;;;2.20;;
17967;SDS011;9109;48.050;11.696;2024-01-30T04:49:26;6.27;;;2.13;;
17967;SDS011;9109;48.050;11.696;2024-01-30T04:52:29;3.93;;;2.10;;
17967;SDS011;9109;48.050;11.696;2024-01-30T04:55:32;3.43;;;2.10;;
17967;SDS011;9109;48.050;11.696;2024-01-30T04:58:37;2.93;;;1.73;;
17967;SDS011;9109;48.050;11.696;2024-01-30T05:01:39;5.03;;;2.30;;
17967;SDS011;9109;48.050;11.696;2024-01-30T05:04:42;5.40;;;2.20;;
17967;SDS011;9109;48.050;11.696;2024-01-30T05:07:44;6.13;;;2.53;;
17967;SDS011;9109;48.050;11.696;2024-01-30T05:10:48;7.17;;;2.70;;
17967;SDS011;9109;48.050;11.696;2024-01-30T05:13:50;7.07;;;2.73;;
17967;SDS011;9109;48.050;11.696;2024-01-30T05:16:52;6.07;;;2.23;;
17967;SDS011;9109;48.050;11.696;2024-01-30T05:19:54;7.80;;;2.73;;
17967;SDS011;9109;48.050;11.696;2024-01-30T05:22:56;10.40;;;3.63;;
17967;SDS011;9109;48.050;11.696;2024-01-30T05:26:00;11.37;;;3.80;;
17967;SDS011;9109;48.050;11.696;2024-01-30T05:29:02;8.33;;;2.87;;
17967;SDS011;9109;48.050;11.696;2024-01-30T05:32:05;7.33;;;2.80;;
17967;SDS011;9109;48.050;11.696;2024-01-30T05:35:07;8.03;;;3.03;;
17967;SDS011;9109;48.050;11.696;2024-01-30T05:38:10;6.37;;;2.67;;
17967;SDS011;9109;48.050;11.696;2024-01-30T05:41:15;7.20;;;3.20;;
17967;SDS011;9109;48.050;11.696;2024-01-30T05:44:17;5.90;;;3.13;;
17967;SDS011;9109;48.050;11.696;2024-01-30T05:47:19;9.03;;;3.17;;
17967;SDS011;9109;48.050;11.696;2024-01-30T05:50:22;5.07;;;2.67;;
17967;SDS011;9109;48.050;11.696;2024-01-30T05:53:26;4.67;;;2.70;;
17967;SDS011;9109;48.050;11.696;2024-01-30T05:56:30;5.03;;;2.80;;
17967;SDS011;9109;48.050;11.696;2024-01-30T05:59:32;6.17;;;2.97;;
17967;SDS011;9109;48.050;11.696;2024-01-30T06:02:36;5.60;;;2.37;;
17967;SDS011;9109;48.050;11.696;2024-01-30T06:05:38;5.43;;;2.30;;
17967;SDS011;9109;48.050;11.696;2024-01-30T06:08:40;7.43;;;2.33;;
17967;SDS011;9109;48.050;11.696;2024-01-30T06:11:44;4.73;;;2.37;;
17967;SDS011;9109;48.050;11.696;2024-01-30T06:14:46;5.20;;;2.60;;
17967;SDS011;9109;48.050;11.696;2024-01-30T06:17:49;4.60;;;2.53;;
17967;SDS011;9109;48.050;11.696;2024-01-30T06:20:51;5.63;;;2.07;;
17967;SDS011;9109;48.050;11.696;2024-01-30T06:23:53;6.90;;;2.60;;
17967;SDS011;9109;48.050;11.696;2024-01-30T06:26:57;4.23;;;2.47;;
17967;SDS011;9109;48.050;11.696;2024-01-30T06:29:59;6.93;;;2.23;;
17967;SDS011;9109;48.050;11.696;2024-01-30T06:33:01;4.53;;;2.40;;
17967;SDS011;9109;48.050;11.696;2024-01-30T06:36:07;4.23;;;2.37;;
17967;SDS011;9109;48.050;11.696;2024-01-30T06:39:09;3.30;;;2.17;;
17967;SDS011;9109;48.050;11.696;2024-01-30T06:42:13;2.97;;;2.00;;
17967;SDS011;9109;48.050;11.696;2024-01-30T06:45:15;4.90;;;2.20;;
17967;SDS011;9109;48.050;11.696;2024-01-30T06:48:17;4.57;;;2.40;;
17967;SDS011;9109;48.050;11.696;2024-01-30T06:51:19;4.37;;;2.30;;
17967;SDS011;9109;48.050;11.696;2024-01-30T06:54:21;4.80;;;2.17;;
17967;SDS011;9109;48.050;11.696;2024-01-30T06:57:25;5.63;;;1.93;;
17967;SDS011;9109;48.050;11.696;2024-01-30T07:00:28;7.50;;;2.57;;
17967;SDS011;9109;48.050;11.696;2024-01-30T07:03:30;5.90;;;2.70;;
17967;SDS011;9109;48.050;11.696;2024-01-30T07:06:32;8.00;;;3.00;;
17967;SDS011;9109;48.050;11.696;2024-01-30T07:09:35;6.50;;;2.90;;
17967;SDS011;9109;48.050;11.696;2024-01-30T07:12:39;6.40;;;3.00;;
17967;SDS011;9109;48.050;11.696;2024-01-30T07:15:41;7.33;;;2.80;;
17967;SDS011;9109;48.050;11.696;2024-01-30T07:18:43;8.53;;;3.37;;
17967;SDS011;9109;48.050;11.696;2024-01-30T07:21:46;9.10;;;2.80;;
17967;SDS011;9109;48.050;11.696;2024-01-30T07:24:49;7.73;;;2.63;;
17967;SDS011;9109;48.050;11.696;2024-01-30T07:27:53;7.73;;;2.70;;
17967;SDS011;9109;48.050;11.696;2024-01-30T07:30:55;9.33;;;3.37;;
17967;SDS011;9109;48.050;11.696;2024-01-30T07:33:58;4.90;;;2.10;;
17967;SDS011;9109;48.050;11.696;2024-01-30T07:37:00;8.40;;;3.10;;
17967;SDS011;9109;48.050;11.696;2024-01-30T07:40:03;7.37;;;3.50;;
17967;SDS011;9109;48.050;11.696;2024-01-30T07:43:06;7.10;;;3.10;;
17967;SDS011;9109;48.050;11.696;2024-01-30T07:46:09;6.93;;;3.03;;
17967;SDS011;9109;48.050;11.696;2024-01-30T07:49:12;7.37;;;3.43;;
17967;SDS011;9109;48.050;11.696;2024-01-30T07:52:17;8.00;;;3.63;;
17967;SDS011;9109;48.050;11.696;2024-01-30T07:55:19;4.87;;;2.70;;
17967;SDS011;9109;48.050;11.696;2024-01-30T07:58:25;6.77;;;3.03;;
17967;SDS011;9109;48.050;11.696;2024-01-30T08:01:28;6.20;;;2.97;;
17967;SDS011;9109;48.050;11.696;2024-01-30T08:04:30;8.83;;;3.27;;
17967;SDS011;9109;48.050;11.696;2024-01-30T08:07:35;6.07;;;3.13;;
17967;SDS011;9109;48.050;11.696;2024-01-30T08:10:38;13.33;;;2.90;;
17967;SDS011;9109;48.050;11.696;2024-01-30T08:13:44;5.80;;;3.17;;
17967;SDS011;9109;48.050;11.696;2024-01-30T08:16:46;5.80;;;2.77;;
17967;SDS011;9109;48.050;11.696;2024-01-30T08:20:02;4.80;;;2.60;;
17967;SDS011;9109;48.050;11.696;2024-01-30T08:23:05;5.33;;;2.80;;
17967;SDS011;9109;48.050;11.696;2024-01-30T08:26:15;7.20;;;2.83;;
17967;SDS011;9109;48.050;11.696;2024-01-30T08:29:19;7.30;;;2.97;;
17967;SDS011;9109;48.050;11.696;2024-01-30T08:32:23;4.20;;;2.43;;
17967;SDS011;9109;48.050;11.696;2024-01-30T08:35:28;7.67;;;3.20;;
17967;SDS011;9109;48.050;11.696;2024-01-30T08:38:33;7.00;;;3.13;;
17967;SDS011;9109;48.050;11.696;2024-01-30T08:41:35;6.40;;;2.97;;
17967;SDS011;9109;48.050;11.696;2024-01-30T08:44:40;6.70;;;2.90;;
17967;SDS011;9109;48.050;11.696;2024-01-30T08:47:44;3.80;;;2.23;;
17967;SDS011;9109;48.050;11.696;2024-01-30T08:50:48;5.40;;;2.60;;
17967;SDS011;9109;48.050;11.696;2024-01-30T08:53:50;4.70;;;2.40;;
17967;SDS011;9109;48.050;11.696;2024-01-30T08:56:53;4.53;;;2.33;;
17967;SDS011;9109;48.050;11.696;2024-01-30T08:59:59;7.17;;;2.73;;
17967;SDS011;9109;48.050;11.696;2024-01-30T09:03:06;5.80;;;2.60;;
17967;SDS011;9109;48.050;11.696;2024-01-30T09:06:10;6.10;;;2.10;;
17967;SDS011;9109;48.050;11.696;2024-01-30T09:09:12;8.93;;;1.60;;
17967;SDS011;9109;48.050;11.696;2024-01-30T09:12:15;2.67;;;1.53;;
17967;SDS011;9109;48.050;11.696;2024-01-30T09:15:18;3.27;;;1.70;;
17967;SDS011;9109;48.050;11.696;2024-01-30T09:18:21;2.23;;;1.27;;
17967;SDS011;9109;48.050;11.696;2024-01-30T09:21:23;3.13;;;1.67;;
17967;SDS011;9109;48.050;11.696;2024-01-30T09:24:25;2.40;;;1.47;;
17967;SDS011;9109;48.050;11.696;2024-01-30T09:27:29;2.87;;;1.30;;
17967;SDS011;9109;48.050;11.696;2024-01-30T09:30:33;2.60;;;1.33;;
17967;SDS011;9109;48.050;11.696;2024-01-30T09:33:35;8.67;;;1.57;;
17967;SDS011;9109;48.050;11.696;2024-01-30T09:36:37;4.37;;;1.90;;
17967;SDS011;9109;48.050;11.696;2024-01-30T09:39:43;3.43;;;1.93;;
17967;SDS011;9109;48.050;11.696;2024-01-30T09:42:49;8.33;;;2.10;;
17967;SDS011;9109;48.050;11.696;2024-01-30T09:45:54;2.87;;;1.70;;
17967;SDS011;9109;48.050;11.696;2024-01-30T09:48:57;8.53;;;1.80;;
17967;SDS011;9109;48.050;11.696;2024-01-30T09:51:59;4.70;;;1.40;;
17967;SDS011;9109;48.050;11.696;2024-01-30T09:55:02;9.77;;;1.93;;
17967;SDS011;9109;48.050;11.696;2024-01-30T09:58:04;7.70;;;1.90;;
17967;SDS011;9109;48.050;11.696;2024-01-30T10:01:09;5.57;;;1.53;;
17967;SDS011;9109;48.050;11.696;2024-01-30T10:04:11;3.40;;;1.40;;
17967;SDS011;9109;48.050;11.696;2024-01-30T10:07:14;7.30;;;1.80;;
17967;SDS011;9109;48.050;11.696;2024-01-30T10:10:16;13.13;;;1.77;;
17967;SDS011;9109;48.050;11.696;2024-01-30T10:13:19;4.87;;;1.60;;
17967;SDS011;9109;48.050;11.696;2024-01-30T10:16:23;3.47;;;1.40;;
17967;SDS011;9109;48.050;11.696;2024-01-30T10:19:25;8.93;;;2.50;;
17967;SDS011;9109;48.050;11.696;2024-01-30T10:22:27;5.30;;;2.07;;
17967;SDS011;9109;48.050;11.696;2024-01-30T10:25:30;9.20;;;2.40;;
17967;SDS011;9109;48.050;11.696;2024-01-30T10:28:33;7.40;;;2.80;;
17967;SDS011;9109;48.050;11.696;2024-01-30T10:31:36;4.33;;;2.13;;
17967;SDS011;9109;48.050;11.696;2024-01-30T10:34:38;7.60;;;2.07;;
17967;SDS011;9109;48.050;11.696;2024-01-30T10:37:41;7.77;;;1.93;;
17967;SDS011;9109;48.050;11.696;2024-01-30T10:40:45;4.73;;;1.87;;
17967;SDS011;9109;48.050;11.696;2024-01-30T10:43:50;11.07;;;1.70;;
17967;SDS011;9109;48.050;11.696;2024-01-30T10:47:00;11.63;;;1.80;;
17967;SDS011;9109;48.050;11.696;2024-01-30T10:50:02;5.30;;;1.60;;
17967;SDS011;9109;48.050;11.696;2024-01-30T10:53:05;7.40;;;1.87;;
17967;SDS011;9109;48.050;11.696;2024-01-30T10:56:07;9.23;;;1.87;;
17967;SDS011;9109;48.050;11.696;2024-01-30T10:59:10;5.63;;;2.10;;
17967;SDS011;9109;48.050;11.696;2024-01-30T11:02:14;7.43;;;1.77;;
17967;SDS011;9109;48.050;11.696;2024-01-30T11:05:23;6.63;;;1.93;;
17967;SDS011;9109;48.050;11.696;2024-01-30T11:08:26;9.10;;;2.33;;
17967;SDS011;9109;48.050;11.696;2024-01-30T11:11:47;8.33;;;2.00;;
17967;SDS011;9109;48.050;11.696;2024-01-30T11:14:50;13.43;;;2.40;;
17967;SDS011;9109;48.050;11.696;2024-01-30T11:17:55;6.10;;;1.90;;
17967;SDS011;9109;48.050;11.696;2024-01-30T11:20:58;4.67;;;1.50;;
17967;SDS011;9109;48.050;11.696;2024-01-30T11:24:02;7.97;;;1.90;;
17967;SDS011;9109;48.050;11.696;2024-01-30T11:27:07;2.50;;;1.37;;
17967;SDS011;9109;48.050;11.696;2024-01-30T11:30:10;3.63;;;1.37;;
17967;SDS011;9109;48.050;11.696;2024-01-30T11:33:14;3.23;;;1.50;;
17967;SDS011;9109;48.050;11.696;2024-01-30T11:36:18;5.93;;;1.20;;
17967;SDS011;9109;48.050;11.696;2024-01-30T11:39:23;5.60;;;1.40;;
17967;SDS011;9109;48.050;11.696;2024-01-30T11:42:26;3.03;;;1.10;;
17967;SDS011;9109;48.050;11.696;2024-01-30T11:45:29;3.33;;;1.57;;
17967;SDS011;9109;48.050;11.696;2024-01-30T11:48:33;2.50;;;1.40;;
17967;SDS011;9109;48.050;11.696;2024-01-30T11:51:35;3.23;;;1.17;;
17967;SDS011;9109;48.050;11.696;2024-01-30T11:54:38;2.00;;;1.30;;
17967;SDS011;9109;48.050;11.696;2024-01-30T11:57:41;1.90;;;1.10;;
17967;SDS011;9109;48.050;11.696;2024-01-30T12:00:52;6.53;;;1.37;;
17967;SDS011;9109;48.050;11.696;2024-01-30T12:03:58;1.93;;;1.07;;
17967;SDS011;9109;48.050;11.696;2024-01-30T12:07:00;2.37;;;1.30;;
17967;SDS011;9109;48.050;11.696;2024-01-30T12:10:04;1.70;;;1.20;;
17967;SDS011;9109;48.050;11.696;2024-01-30T12:13:08;2.53;;;1.30;;
17967;SDS011;9109;48.050;11.696;2024-01-30T12:16:13;3.07;;;1.70;;
17967;SDS011;9109;48.050;11.696;2024-01-30T12:19:22;6.37;;;1.47;;
17967;SDS011;9109;48.050;11.696;2024-01-30T12:22:24;3.07;;;1.30;;
17967;SDS011;9109;48.050;11.696;2024-01-30T12:25:26;3.50;;;1.37;;
17967;SDS011;9109;48.050;11.696;2024-01-30T12:28:32;4.33;;;1.27;;
17967;SDS011;9109;48.050;11.696;2024-01-30T12:31:35;3.60;;;1.37;;
17967;SDS011;9109;48.050;11.696;2024-01-30T12:34:41;2.87;;;1.50;;
17967;SDS011;9109;48.050;11.696;2024-01-30T12:37:45;4.47;;;1.60;;
17967;SDS011;9109;48.050;11.696;2024-01-30T12:40:47;3.90;;;1.60;;
17967;SDS011;9109;48.050;11.696;2024-01-30T12:43:50;4.70;;;1.50;;
17967;SDS011;9109;48.050;11.696;2024-01-30T12:46:52;4.20;;;1.17;;
17967;SDS011;9109;48.050;11.696;2024-01-30T12:49:56;1.73;;;1.30;;
17967;SDS011;9109;48.050;11.696;2024-01-30T12:52:58;4.50;;;2.00;;
17967;SDS011;9109;48.050;11.696;2024-01-30T12:56:00;2.97;;;1.60;;
17967;SDS011;9109;48.050;11.696;2024-01-30T12:59:02;3.63;;;1.40;;
17967;SDS011;9109;48.050;11.696;2024-01-30T13:02:05;2.10;;;1.30;;
17967;SDS011;9109;48.050;11.696;2024-01-30T13:05:10;5.90;;;2.60;;
17967;SDS011;9109;48.050;11.696;2024-01-30T13:08:12;5.13;;;1.40;;
17967;SDS011;9109;48.050;11.696;2024-01-30T13:11:14;2.70;;;1.47;;
17967;SDS011;9109;48.050;11.696;2024-01-30T13:14:18;4.63;;;1.85;;
17967;SDS011;9109;48.050;11.696;2024-01-30T13:17:20;6.60;;;1.60;;
17967;SDS011;9109;48.050;11.696;2024-01-30T13:23:40;2.57;;;1.50;;
17967;SDS011;9109;48.050;11.696;2024-01-30T13:26:54;4.90;;;1.77;;
17967;SDS011;9109;48.050;11.696;2024-01-30T13:30:00;3.05;;;1.60;;
17967;SDS011;9109;48.050;11.696;2024-01-30T13:33:02;7.13;;;1.70;;
17967;SDS011;9109;48.050;11.696;2024-01-30T13:36:05;3.78;;;1.95;;
17967;SDS011;9109;48.050;11.696;2024-01-30T13:39:08;4.40;;;1.83;;
17967;SDS011;9109;48.050;11.696;2024-01-30T13:42:12;5.28;;;2.30;;
17967;SDS011;9109;48.050;11.696;2024-01-30T13:45:14;6.13;;;2.00;;
17967;SDS011;9109;48.050;11.696;2024-01-30T13:48:17;4.30;;;2.22;;
17967;SDS011;9109;48.050;11.696;2024-01-30T13:51:19;4.88;;;1.85;;
17967;SDS011;9109;48.050;11.696;2024-01-30T13:54:23;4.63;;;1.92;;
17967;SDS011;9109;48.050;11.696;2024-01-30T13:57:25;4.78;;;1.40;;
17967;SDS011;9109;48.050;11.696;2024-01-30T14:00:27;3.90;;;1.77;;
17967;SDS011;9109;48.050;11.696;2024-01-30T14:03:29;3.90;;;1.80;;
17967;SDS011;9109;48.050;11.696;2024-01-30T14:06:32;3.33;;;1.60;;
17967;SDS011;9109;48.050;11.696;2024-01-30T14:09:36;5.75;;;1.45;;
17967;SDS011;9109;48.050;11.696;2024-01-30T14:12:41;10.20;;;1.60;;
17967;SDS011;9109;48.050;11.696;2024-01-30T14:15:43;8.02;;;2.00;;
17967;SDS011;9109;48.050;11.696;2024-01-30T14:18:46;8.13;;;1.85;;
17967;SDS011;9109;48.050;11.696;2024-01-30T14:21:48;9.43;;;1.55;;
17967;SDS011;9109;48.050;11.696;2024-01-30T14:24:52;19.80;;;2.10;;
17967;SDS011;9109;48.050;11.696;2024-01-30T14:27:54;8.80;;;1.63;;
17967;SDS011;9109;48.050;11.696;2024-01-30T14:30:56;3.92;;;1.58;;
17967;SDS011;9109;48.050;11.696;2024-01-30T14:33:58;7.45;;;1.83;;
17967;SDS011;9109;48.050;11.696;2024-01-30T14:37:01;2.63;;;1.60;;
17967;SDS011;9109;48.050;11.696;2024-01-30T14:40:05;4.72;;;1.77;;
17967;SDS011;9109;48.050;11.696;2024-01-30T14:43:07;3.38;;;1.75;;
17967;SDS011;9109;48.050;11.696;2024-01-30T14:46:11;4.80;;;2.10;;
17967;SDS011;9109;48.050;11.696;2024-01-30T14:49:13;3.17;;;2.17;;
17967;SDS011;9109;48.050;11.696;2024-01-30T14:52:15;5.95;;;2.05;;
17967;SDS011;9109;48.050;11.696;2024-01-30T14:55:19;2.83;;;1.67;;
17967;SDS011;9109;48.050;11.696;2024-01-30T14:58:21;8.60;;;2.05;;
17967;SDS011;9109;48.050;11.696;2024-01-30T15:01:25;7.18;;;2.38;;
17967;SDS011;9109;48.050;11.696;2024-01-30T15:04:28;12.27;;;2.25;;
17967;SDS011;9109;48.050;11.696;2024-01-30T15:07:30;6.93;;;2.75;;
17967;SDS011;9109;48.050;11.696;2024-01-30T15:10:33;7.07;;;1.57;;
17967;SDS011;9109;48.050;11.696;2024-01-30T15:13:36;7.25;;;2.30;;
17967;SDS011;9109;48.050;11.696;2024-01-30T15:16:38;4.87;;;1.90;;
17967;SDS011;9109;48.050;11.696;2024-01-30T15:19:40;5.28;;;2.30;;
17967;SDS011;9109;48.050;11.696;2024-01-30T15:22:43;14.35;;;2.25;;
17967;SDS011;9109;48.050;11.696;2024-01-30T15:25:46;9.52;;;2.78;;
17967;SDS011;9109;48.050;11.696;2024-01-30T15:28:48;9.25;;;2.65;;
17967;SDS011;9109;48.050;11.696;2024-01-30T15:31:51;12.77;;;3.38;;
17967;SDS011;9109;48.050;11.696;2024-01-30T15:34:53;14.98;;;3.25;;
17967;SDS011;9109;48.050;11.696;2024-01-30T15:37:56;13.27;;;3.85;;
17967;SDS011;9109;48.050;11.696;2024-01-30T15:41:00;8.43;;;3.03;;
17967;SDS011;9109;48.050;11.696;2024-01-30T15:44:02;9.32;;;2.42;;
17967;SDS011;9109;48.050;11.696;2024-01-30T15:47:06;21.20;;;4.53;;
17967;SDS011;9109;48.050;11.696;2024-01-30T15:50:11;13.13;;;2.95;;
17967;SDS011;9109;48.050;11.696;2024-01-30T15:53:22;11.27;;;2.80;;
17967;SDS011;9109;48.050;11.696;2024-01-30T15:56:27;9.03;;;3.00;;
17967;SDS011;9109;48.050;11.696;2024-01-30T15:59:30;10.17;;;3.33;;
17967;SDS011;9109;48.050;11.696;2024-01-30T16:02:33;7.63;;;3.03;;
17967;SDS011;9109;48.050;11.696;2024-01-30T16:05:36;12.27;;;2.80;;
17967;SDS011;9109;48.050;11.696;2024-01-30T16:08:40;19.70;;;3.10;;
17967;SDS011;9109;48.050;11.696;2024-01-30T16:11:45;14.50;;;2.80;;
17967;SDS011;9109;48.050;11.696;2024-01-30T16:14:51;7.97;;;2.80;;
17967;SDS011;9109;48.050;11.696;2024-01-30T16:17:55;8.13;;;2.10;;
17967;SDS011;9109;48.050;11.696;2024-01-30T16:20:57;12.43;;;2.17;;
17967;SDS011;9109;48.050;11.696;2024-01-30T16:24:01;7.47;;;1.90;;
17967;SDS011;9109;48.050;11.696;2024-01-30T16:27:05;3.00;;;1.70;;
17967;SDS011;9109;48.050;11.696;2024-01-30T16:30:10;7.90;;;1.97;;
17967;SDS011;9109;48.050;11.696;2024-01-30T16:33:12;4.07;;;1.57;;
17967;SDS011;9109;48.050;11.696;2024-01-30T16:36:15;6.40;;;2.00;;
17967;SDS011;9109;48.050;11.696;2024-01-30T16:39:18;3.23;;;1.70;;
17967;SDS011;9109;48.050;11.696;2024-01-30T16:42:21;7.43;;;1.93;;
17967;SDS011;9109;48.050;11.696;2024-01-30T16:45:23;7.10;;;1.90;;
17967;SDS011;9109;48.050;11.696;2024-01-30T16:48:26;10.83;;;2.20;;
17967;SDS011;9109;48.050;11.696;2024-01-30T16:51:28;8.80;;;2.00;;
17967;SDS011;9109;48.050;11.696;2024-01-30T16:54:30;6.40;;;1.97;;
17967;SDS011;9109;48.050;11.696;2024-01-30T16:57:34;3.93;;;2.10;;
17967;SDS011;9109;48.050;11.696;2024-01-30T17:00:36;18.83;;;3.13;;
17967;SDS011;9109;48.050;11.696;2024-01-30T17:03:39;17.10;;;2.73;;
17967;SDS011;9109;48.050;11.696;2024-01-30T17:06:42;3.43;;;1.90;;
17967;SDS011;9109;48.050;11.696;2024-01-30T17:09:44;10.80;;;2.50;;
17967;SDS011;9109;48.050;11.696;2024-01-30T17:12:48;12.23;;;2.53;;
17967;SDS011;9109;48.050;11.696;2024-01-30T17:15:50;12.00;;;2.77;;
17967;SDS011;9109;48.050;11.696;2024-01-30T17:18:52;16.53;;;2.50;;
17967;SDS011;9109;48.050;11.696;2024-01-30T17:21:54;12.30;;;2.50;;
17967;SDS011;9109;48.050;11.696;2024-01-30T17:24:56;4.60;;;2.07;;
17967;SDS011;9109;48.050;11.696;2024-01-30T17:28:00;13.63;;;2.30;;
17967;SDS011;9109;48.050;11.696;2024-01-30T17:31:02;5.37;;;2.30;;
17967;SDS011;9109;48.050;11.696;2024-01-30T17:34:04;7.13;;;2.30;;
17967;SDS011;9109;48.050;11.696;2024-01-30T17:37:07;11.87;;;3.20;;
17967;SDS011;9109;48.050;11.696;2024-01-30T17:40:09;5.37;;;2.53;;
17967;SDS011;9109;48.050;11.696;2024-01-30T17:43:13;9.53;;;2.40;;
17967;SDS011;9109;48.050;11.696;2024-01-30T17:46:15;13.17;;;2.80;;
17967;SDS011;9109;48.050;11.696;2024-01-30T17:49:17;12.83;;;3.17;;
17967;SDS011;9109;48.050;11.696;2024-01-30T17:52:19;15.77;;;3.97;;
17967;SDS011;9109;48.050;11.696;2024-01-30T17:55:22;8.10;;;3.20;;
17967;SDS011;9109;48.050;11.696;2024-01-30T17:58:26;10.77;;;3.57;;
17967;SDS011;9109;48.050;11.696;2024-01-30T18:01:29;12.00;;;3.87;;
17967;SDS011;9109;48.050;11.696;2024-01-30T18:04:31;10.10;;;3.47;;
17967;SDS011;9109;48.050;11.696;2024-01-30T18:07:34;9.60;;;3.67;;
17967;SDS011;9109;48.050;11.696;2024-01-30T18:10:38;11.50;;;3.60;;
17967;SDS011;9109;48.050;11.696;2024-01-30T18:13:42;8.87;;;3.43;;
17967;SDS011;9109;48.050;11.696;2024-01-30T18:16:44;12.17;;;3.60;;
17967;SDS011;9109;48.050;11.696;2024-01-30T18:19:46;8.63;;;2.80;;
17967;SDS011;9109;48.050;11.696;2024-01-30T18:22:48;6.47;;;3.40;;
17967;SDS011;9109;48.050;11.696;2024-01-30T18:25:51;7.57;;;2.77;;